Time;durP1;ratioP1;P1;durP2;ratioP2;P2;SDS_P1;SDS_P2;PMS_P1;PMS_P2;Temp;Humidity;BMP_temperature;BMP_pressure;BME280_temperature;BME280_humidity;BME280_pressure;Samples;Min_cycle;Max_cycle;Signal;HPM_P1;HPM_P2
2023/12/06 00:00:20;;;;;;;23.60;12.50;;;;;;;0.85;100.00;100969.28;4974705;28;20472;-83
2023/12/06 00:02:46;;;;;;;23.75;11.90;;;;;;;0.88;100.00;100968.53;4981856;23;20532;-83
2023/12/06 00:05:11;;;;;;;24.00;12.55;;;;;;;0.90;100.00;100967.72;4975381;28;20102;-83
2023/12/06 00:07:39;;;;;;;24.13;12.45;;;;;;;0.91;100.00;100973.69;4974106;28;20420;-83
2023/12/06 00:10:05;;;;;;;26.33;13.20;;;;;;;0.90;100.00;100972.00;4970699;28;20039;-82
2023/12/06 00:12:34;;;;;;;26.00;13.80;;;;;;;0.90;100.00;100977.94;4975484;28;20034;-83
2023/12/06 00:14:59;;;;;;;25.52;12.82;;;;;;;0.91;100.00;100972.00;4975196;28;20033;-83
2023/12/06 00:17:24;;;;;;;29.92;16.25;;;;;;;0.89;100.00;100975.38;4976284;28;20034;-83
2023/12/06 00:19:50;;;;;;;27.40;14.55;;;;;;;0.90;100.00;100983.06;4975547;28;20046;-83
2023/12/06 00:22:15;;;;;;;31.67;17.92;;;;;;;0.88;100.00;100969.38;4975824;28;20037;-83
2023/12/06 00:24:53;;;;;;;29.88;16.10;;;;;;;0.79;100.00;100968.28;4982004;23;20031;-83
2023/12/06 00:27:27;;;;;;;28.85;15.30;;;;;;;0.88;100.00;100981.28;4975804;28;20033;-83
2023/12/06 00:29:53;;;;;;;28.83;15.48;;;;;;;0.85;100.00;100976.09;4974997;28;20090;-83
2023/12/06 00:32:21;;;;;;;30.92;16.73;;;;;;;0.84;100.00;100976.91;4975409;28;20030;-83
2023/12/06 00:35:08;;;;;;;31.30;17.20;;;;;;;0.76;100.00;100972.47;4974748;28;20031;-83
2023/12/06 00:37:33;;;;;;;32.35;18.00;;;;;;;0.90;100.00;100994.97;4974863;28;20030;-83
2023/12/06 00:39:58;;;;;;;29.30;15.82;;;;;;;0.89;100.00;100999.22;4974389;28;20125;-83
2023/12/06 00:42:24;;;;;;;27.02;14.38;;;;;;;0.93;100.00;101007.81;4955114;29;20075;-83
2023/12/06 00:44:49;;;;;;;26.80;13.82;;;;;;;0.89;100.00;100994.09;4955136;29;20020;-83
2023/12/06 00:47:14;;;;;;;26.27;13.35;;;;;;;0.93;100.00;101000.16;4955845;29;20123;-83
2023/12/06 00:49:39;;;;;;;23.98;11.52;;;;;;;0.96;100.00;101010.47;4954578;29;20038;-84
2023/12/06 00:52:05;;;;;;;23.23;11.18;;;;;;;0.94;100.00;101006.16;4955559;29;20476;-83
2023/12/06 00:54:30;;;;;;;22.33;10.13;;;;;;;0.95;100.00;101007.88;4955537;29;20111;-83
2023/12/06 00:56:58;;;;;;;24.85;12.23;;;;;;;0.85;100.00;100997.38;4953968;29;20027;-83
2023/12/06 00:59:36;;;;;;;23.63;11.48;;;;;;;0.85;100.00;100996.53;4956992;28;20041;-83
2023/12/06 01:02:07;;;;;;;23.45;10.95;;;;;;;0.96;100.00;101017.28;4974247;28;20484;-83
2023/12/06 01:04:41;;;;;;;22.05;10.32;;;;;;;0.88;100.00;101001.75;4973451;28;20042;-83
2023/12/06 01:07:13;;;;;;;21.48;9.80;;;;;;;0.89;100.00;101001.78;4974562;28;20027;-83
2023/12/06 01:09:41;;;;;;;20.17;9.45;;;;;;;1.06;100.00;101034.59;4974006;28;20030;-83
2023/12/06 01:12:06;;;;;;;20.77;9.55;;;;;;;1.04;100.00;101028.56;4979860;28;20494;-83
2023/12/06 01:14:31;;;;;;;22.00;9.93;;;;;;;1.05;100.00;101040.53;4993214;28;20039;-83
2023/12/06 01:16:57;;;;;;;23.75;11.93;;;;;;;1.04;100.00;101034.53;4993235;28;20022;-83
2023/12/06 01:19:27;;;;;;;24.23;11.68;;;;;;;1.04;100.00;101046.47;4993670;28;20501;-84
2023/12/06 01:21:56;;;;;;;23.38;11.35;;;;;;;1.02;100.00;101036.19;4993185;28;20085;-83
2023/12/06 01:24:21;;;;;;;26.73;13.88;;;;;;;1.04;100.00;101049.03;4980196;28;20119;-83
2023/12/06 01:26:46;;;;;;;25.85;13.15;;;;;;;1.06;100.00;101052.50;4973618;28;20125;-83
2023/12/06 01:29:12;;;;;;;26.90;13.40;;;;;;;1.02;100.00;101043.00;4974585;28;20055;-83
2023/12/06 01:31:38;;;;;;;24.10;11.98;;;;;;;1.05;100.00;101056.72;4933884;23;20148;-83
2023/12/06 01:34:05;;;;;;;23.95;11.77;;;;;;;1.07;100.00;101065.31;4916731;29;20107;-83
2023/12/06 01:36:30;;;;;;;23.38;11.98;;;;;;;1.08;100.00;101063.59;4935828;29;20063;-83
2023/12/06 01:38:56;;;;;;;23.63;12.00;;;;;;;1.04;100.00;101062.66;4934516;29;20114;-83
2023/12/06 01:41:21;;;;;;;24.77;12.20;;;;;;;0.96;100.00;101056.47;4935642;29;20035;-83
2023/12/06 01:43:46;;;;;;;24.08;12.23;;;;;;;0.96;100.00;101050.50;4935160;29;20028;-83
2023/12/06 01:46:12;;;;;;;24.75;12.70;;;;;;;1.08;100.00;101073.81;4934897;29;20031;-83
2023/12/06 01:48:38;;;;;;;23.80;11.93;;;;;;;1.05;100.00;101077.16;4935500;29;20028;-83
2023/12/06 01:51:04;;;;;;;23.20;11.73;;;;;;;1.02;100.00;101069.41;4935311;29;20102;-83
2023/12/06 01:53:31;;;;;;;22.15;10.98;;;;;;;1.10;100.00;101084.09;4934152;29;20051;-83
2023/12/06 01:55:59;;;;;;;21.15;9.93;;;;;;;1.08;100.00;101078.94;4935109;29;20386;-83
2023/12/06 01:58:25;;;;;;;20.45;9.25;;;;;;;1.10;100.00;101079.00;4935780;29;20174;-83
2023/12/06 02:01:10;;;;;;;20.63;8.90;;;;;;;1.11;100.00;101078.16;4934687;29;20479;-83
2023/12/06 02:03:38;;;;;;;17.98;7.90;;;;;;;1.03;100.00;101071.13;4935269;29;20036;-83
2023/12/06 02:06:07;;;;;;;19.05;8.20;;;;;;;1.14;100.00;101091.91;4935535;29;20032;-83
2023/12/06 02:08:35;;;;;;;18.38;8.05;;;;;;;1.13;100.00;101089.28;4935496;29;20027;-84
2023/12/06 02:11:01;;;;;;;17.40;7.53;;;;;;;1.16;100.00;101099.59;4935760;29;20035;-83
2023/12/06 02:13:28;;;;;;;16.85;7.57;;;;;;;1.16;100.00;101094.47;4935236;29;20020;-83
2023/12/06 02:15:54;;;;;;;19.27;8.68;;;;;;;1.13;100.00;101086.72;4935399;29;20106;-83
2023/12/06 02:18:26;;;;;;;16.98;7.47;;;;;;;1.15;100.00;101101.31;4935926;29;20031;-83
2023/12/06 02:20:53;;;;;;;15.75;6.72;;;;;;;1.17;100.00;101109.00;4935082;29;20114;-83
2023/12/06 02:23:22;;;;;;;13.93;6.20;;;;;;;1.16;100.00;101104.72;4935780;29;20027;-83
2023/12/06 02:25:51;;;;;;;14.93;6.47;;;;;;;1.14;100.00;101101.25;4935263;29;20122;-83
2023/12/06 02:28:31;;;;;;;14.95;6.32;;;;;;;1.12;100.00;101096.09;4935334;29;20034;-83
2023/12/06 02:30:56;;;;;;;13.18;5.70;;;;;;;1.06;100.00;101086.56;4934934;29;20497;-82
2023/12/06 02:33:32;;;;;;;12.15;5.43;;;;;;;1.12;100.00;101095.25;4935828;29;20035;-83
2023/12/06 02:36:10;;;;;;;14.13;6.20;;;;;;;1.02;100.00;101079.63;4934962;29;20038;-83
2023/12/06 02:38:46;;;;;;;13.52;5.80;;;;;;;1.07;100.00;101090.84;4936025;29;20149;-83
2023/12/06 02:41:25;;;;;;;12.82;5.30;;;;;;;1.06;100.00;101088.28;4935897;29;20396;-82
2023/12/06 02:44:09;;;;;;;10.27;4.60;;;;;;;1.09;100.00;101088.34;4935413;29;20027;-82
2023/12/06 02:46:36;;;;;;;12.25;5.00;;;;;;;1.18;100.00;101103.06;4935692;29;20027;-82
2023/12/06 02:49:01;;;;;;;10.68;4.95;;;;;;;1.17;100.00;101096.22;4934546;29;20038;-82
2023/12/06 02:51:27;;;;;;;11.38;5.28;;;;;;;1.19;100.00;101097.13;4935426;29;20024;-83
2023/12/06 02:53:52;;;;;;;10.82;5.05;;;;;;;1.19;100.00;101100.53;4935029;29;20027;-83
2023/12/06 02:56:17;;;;;;;8.98;4.50;;;;;;;1.18;100.00;101100.50;4936220;29;20028;-83
2023/12/06 02:58:42;;;;;;;12.35;5.32;;;;;;;1.13;100.00;101094.38;4939453;29;20093;-83
2023/12/06 03:01:08;;;;;;;10.57;5.13;;;;;;;1.22;100.00;101105.75;4939165;29;20475;-82
2023/12/06 03:03:36;;;;;;;9.27;4.50;;;;;;;1.24;100.00;101105.78;4937756;29;20487;-83
2023/12/06 03:06:02;;;;;;;10.25;4.70;;;;;;;1.26;100.00;101100.72;4946392;23;20069;-82
2023/12/06 03:08:30;;;;;;;11.95;5.18;;;;;;;1.15;100.00;101077.41;4918046;29;20040;-82
2023/12/06 03:11:02;;;;;;;10.75;5.10;;;;;;;1.17;100.00;101086.88;4918086;29;20458;-83
2023/12/06 03:13:36;;;;;;;10.75;5.00;;;;;;;1.28;100.00;101105.06;4919256;29;20024;-82
2023/12/06 03:16:01;;;;;;;7.88;3.72;;;;;;;1.23;100.00;101087.03;4933017;23;20047;-82
2023/12/06 03:18:27;;;;;;;9.70;5.10;;;;;;;1.30;100.00;101102.53;4937416;29;20034;-83
2023/12/06 03:20:52;;;;;;;11.38;5.20;;;;;;;1.32;100.00;101103.44;4937490;29;20039;-82
2023/12/06 03:23:17;;;;;;;9.57;4.82;;;;;;;1.33;100.00;101120.50;4937412;29;20084;-83
2023/12/06 03:25:43;;;;;;;11.77;5.20;;;;;;;1.27;100.00;101110.97;4936991;29;20102;-83
2023/12/06 03:28:08;;;;;;;12.48;5.30;;;;;;;1.29;100.00;101111.91;4938111;29;20047;-83
2023/12/06 03:30:34;;;;;;;10.70;5.20;;;;;;;1.35;100.00;101124.84;4936965;29;20441;-83
2023/12/06 03:32:59;;;;;;;13.40;5.97;;;;;;;1.34;100.00;101128.25;4938036;29;20457;-83
2023/12/06 03:35:25;;;;;;;14.90;6.90;;;;;;;1.36;100.00;101128.28;4938559;29;20038;-83
2023/12/06 03:37:50;;;;;;;16.00;7.18;;;;;;;1.24;100.00;101110.91;4936787;29;20099;-82
2023/12/06 03:40:24;;;;;;;16.98;7.40;;;;;;;1.20;100.00;101099.72;4937683;29;20039;-83
2023/12/06 03:43:05;;;;;;;15.10;7.13;;;;;;;1.38;100.00;101135.16;4937006;29;20028;-83
2023/12/06 03:45:31;;;;;;;12.75;6.38;;;;;;;1.32;100.00;101124.78;4937716;29;20090;-82
2023/12/06 03:48:03;;;;;;;14.52;7.07;;;;;;;1.27;100.00;101115.25;4938603;29;20397;-82
2023/12/06 03:50:31;;;;;;;18.40;8.98;;;;;;;1.29;100.00;101119.56;4938200;29;20362;-82
2023/12/06 03:52:56;;;;;;;15.13;7.35;;;;;;;1.30;100.00;101117.88;4937034;29;20095;-82
2023/12/06 03:55:28;;;;;;;13.77;6.18;;;;;;;1.38;100.00;101135.16;4937312;29;20127;-82
2023/12/06 03:58:08;;;;;;;14.10;6.68;;;;;;;1.38;100.00;101130.03;4937197;29;20040;-83
2023/12/06 04:00:39;;;;;;;13.95;6.28;;;;;;;1.33;100.00;101120.50;4936413;29;20031;-83
2023/12/06 04:03:07;;;;;;;12.80;6.00;;;;;;;1.49;100.00;101142.25;4937382;29;20037;-82
2023/12/06 04:05:44;;;;;;;12.60;5.75;;;;;;;1.51;100.00;101144.06;4936901;29;20024;-83
2023/12/06 04:08:31;;;;;;;11.02;5.40;;;;;;;1.47;100.00;101139.66;4937775;29;20020;-83
2023/12/06 04:11:01;;;;;;;11.95;5.80;;;;;;;1.41;100.00;101126.69;4938236;29;20056;-83
2023/12/06 04:13:42;;;;;;;12.32;6.03;;;;;;;1.50;100.00;101141.44;4937093;29;20023;-83
2023/12/06 04:16:10;;;;;;;11.57;5.50;;;;;;;1.51;100.00;101143.16;4937533;29;20043;-83
2023/12/06 04:18:35;;;;;;;12.93;6.00;;;;;;;1.45;100.00;101138.75;4937459;29;20032;-83
2023/12/06 04:21:00;;;;;;;10.02;5.10;;;;;;;1.53;100.00;101151.75;4936472;29;20042;-83
2023/12/06 04:23:38;;;;;;;10.35;4.95;;;;;;;1.56;100.00;101159.53;4938091;29;20024;-83
2023/12/06 04:26:06;;;;;;;12.65;6.15;;;;;;;1.59;100.00;101159.56;4937888;29;20118;-83
2023/12/06 04:28:31;;;;;;;12.02;5.50;;;;;;;1.63;100.00;101168.22;4936488;29;20032;-83
2023/12/06 04:30:57;;;;;;;11.18;5.30;;;;;;;1.64;100.00;101160.59;4936973;29;20551;-83
2023/12/06 04:33:34;;;;;;;9.07;4.50;;;;;;;1.58;100.00;101149.31;4937390;29;20020;-83
2023/12/06 04:36:15;;;;;;;9.60;4.80;;;;;;;1.64;100.00;101163.13;4936900;29;20071;-83
2023/12/06 04:38:41;;;;;;;11.77;5.40;;;;;;;1.66;100.00;101165.72;4937349;29;20072;-83
2023/12/06 04:41:18;;;;;;;10.02;5.03;;;;;;;1.65;100.00;101162.31;4936767;29;20031;-83
2023/12/06 04:43:49;;;;;;;10.88;5.40;;;;;;;1.67;100.00;101163.22;4937755;29;20028;-83
2023/12/06 04:46:15;;;;;;;10.60;5.22;;;;;;;1.66;100.00;101168.28;4936899;29;20481;-83
2023/12/06 04:48:40;;;;;;;10.48;5.18;;;;;;;1.60;100.00;101166.44;4936489;29;20031;-83
2023/12/06 04:51:05;;;;;;;10.20;5.18;;;;;;;1.65;100.00;101164.00;4937761;29;20075;-83
2023/12/06 04:53:31;;;;;;;11.85;5.43;;;;;;;1.65;100.00;101167.44;4936262;29;20514;-83
2023/12/06 04:55:59;;;;;;;12.95;6.13;;;;;;;1.69;100.00;101174.34;4920142;29;20091;-84
2023/12/06 04:58:25;;;;;;;13.52;6.22;;;;;;;1.70;100.00;101170.97;4937378;29;20097;-83
2023/12/06 05:00:52;;;;;;;14.32;6.60;;;;;;;1.70;100.00;101183.75;4936842;29;20027;-83
2023/12/06 05:03:17;;;;;;;10.90;5.40;;;;;;;1.77;100.00;101189.91;4935984;29;20110;-83
2023/12/06 05:05:44;;;;;;;11.40;5.57;;;;;;;1.79;100.00;101192.53;4936240;29;20031;-82
2023/12/06 05:08:10;;;;;;;10.75;5.28;;;;;;;1.80;100.00;101195.13;4936376;29;20024;-83
2023/12/06 05:10:35;;;;;;;10.35;5.00;;;;;;;1.80;100.00;101190.00;4936038;29;20039;-84
2023/12/06 05:13:12;;;;;;;10.02;4.72;;;;;;;1.79;100.00;101184.84;4936016;29;20055;-84
2023/12/06 05:15:38;;;;;;;8.27;4.43;;;;;;;1.77;100.00;101189.06;4935187;29;20044;-83
2023/12/06 05:18:03;;;;;;;7.57;3.90;;;;;;;1.84;100.00;101193.50;4934521;29;20031;-83
2023/12/06 05:20:31;;;;;;;8.50;4.60;;;;;;;1.76;100.00;101185.63;4935552;29;20039;-83
2023/12/06 05:22:57;;;;;;;10.43;5.03;;;;;;;1.87;100.00;101198.72;4935828;29;20023;-83
2023/12/06 05:25:34;;;;;;;9.00;4.47;;;;;;;1.87;100.00;101202.94;4934916;29;20445;-84
2023/12/06 05:28:03;;;;;;;7.93;4.28;;;;;;;1.80;100.00;101186.59;4936302;29;20020;-83
2023/12/06 05:30:37;;;;;;;10.10;4.70;;;;;;;1.77;100.00;101184.78;4935768;29;20393;-83
2023/12/06 05:33:06;;;;;;;8.32;4.35;;;;;;;1.88;100.00;101199.56;4936422;29;20024;-83
2023/12/06 05:35:34;;;;;;;9.20;4.47;;;;;;;1.88;100.00;101205.56;4936055;29;20028;-84
2023/12/06 05:38:05;;;;;;;8.27;4.43;;;;;;;1.86;100.00;101196.97;4935166;29;20028;-83
2023/12/06 05:40:37;;;;;;;7.35;4.13;;;;;;;1.91;100.00;101205.66;4935736;29;20123;-83
2023/12/06 05:43:11;;;;;;;8.13;4.20;;;;;;;1.85;100.00;101200.34;4936109;29;20393;-84
2023/12/06 05:45:43;;;;;;;9.15;4.68;;;;;;;1.97;100.00;101220.31;4934699;29;20123;-84
2023/12/06 05:48:26;;;;;;;8.38;4.47;;;;;;;1.93;100.00;101209.09;4935975;29;20023;-83
2023/12/06 05:50:52;;;;;;;10.63;5.28;;;;;;;1.94;100.00;101213.38;4936061;29;20131;-83
2023/12/06 05:53:32;;;;;;;10.18;4.97;;;;;;;1.88;100.00;101200.44;4935626;29;20062;-83
2023/12/06 05:55:57;;;;;;;9.00;4.40;;;;;;;1.95;100.00;101211.72;4936500;29;20024;-83
2023/12/06 05:58:23;;;;;;;8.10;4.32;;;;;;;1.98;100.00;101216.88;4935720;29;20079;-83
2023/12/06 06:00:48;;;;;;;8.40;4.32;;;;;;;2.06;100.00;101220.53;4935031;29;20036;-83
2023/12/06 06:03:13;;;;;;;9.52;4.88;;;;;;;2.06;100.00;101233.34;4965421;23;20129;-82
2023/12/06 06:05:39;;;;;;;9.90;4.65;;;;;;;2.05;100.00;101229.03;4972651;28;20476;-82
2023/12/06 06:08:05;;;;;;;9.65;4.80;;;;;;;2.04;100.00;101227.31;4974164;28;20058;-83
2023/12/06 06:10:33;;;;;;;9.43;4.78;;;;;;;2.07;100.00;101229.06;4973460;28;20042;-82
2023/12/06 06:12:58;;;;;;;8.60;4.35;;;;;;;2.11;100.00;101234.31;4973148;28;20074;-84
2023/12/06 06:15:23;;;;;;;8.75;4.68;;;;;;;2.09;100.00;101219.75;4973886;28;20050;-82
2023/12/06 06:17:52;;;;;;;7.88;4.03;;;;;;;2.13;100.00;101231.81;4973436;28;20023;-82
2023/12/06 06:20:17;;;;;;;8.75;4.40;;;;;;;2.14;100.00;101238.63;4972908;28;20071;-83
2023/12/06 06:22:42;;;;;;;10.07;4.97;;;;;;;2.14;100.00;101239.53;4973677;28;20063;-82
2023/12/06 06:25:18;;;;;;;8.98;4.53;;;;;;;2.10;100.00;101236.84;5025609;23;20075;-82
2023/12/06 06:27:43;;;;;;;8.38;4.28;;;;;;;2.09;100.00;101240.22;4973218;28;20075;-82
2023/12/06 06:30:10;;;;;;;10.18;4.80;;;;;;;2.15;100.00;101251.50;5016511;23;20055;-82
2023/12/06 06:32:36;;;;;;;10.93;4.93;;;;;;;2.14;100.00;101246.31;4957669;28;20027;-82
2023/12/06 06:35:01;;;;;;;7.60;4.18;;;;;;;2.15;100.00;101253.16;4957339;29;20033;-83
2023/12/06 06:37:27;;;;;;;7.75;4.10;;;;;;;2.15;100.00;101255.72;4958070;29;20042;-82
2023/12/06 06:39:52;;;;;;;10.55;4.78;;;;;;;2.14;100.00;101260.00;4957641;29;20054;-83
2023/12/06 06:42:18;;;;;;;10.60;4.70;;;;;;;2.13;100.00;101257.41;4957390;29;20472;-83
2023/12/06 06:44:44;;;;;;;9.18;4.65;;;;;;;2.18;100.00;101271.19;4957577;28;20031;-82
2023/12/06 06:47:10;;;;;;;11.93;5.60;;;;;;;2.15;100.00;101266.84;4957577;29;20028;-82
2023/12/06 06:49:39;;;;;;;9.10;4.80;;;;;;;2.18;100.00;101271.19;4956250;29;20082;-82
2023/12/06 06:52:04;;;;;;;10.27;5.03;;;;;;;2.20;100.00;101272.09;4957290;28;20071;-82
2023/12/06 06:54:30;;;;;;;12.18;5.47;;;;;;;2.16;100.00;101267.72;4956532;28;20039;-82
2023/12/06 06:56:55;;;;;;;14.60;6.32;;;;;;;2.22;100.00;101280.69;4957356;28;20031;-83
2023/12/06 06:59:20;;;;;;;10.18;5.20;;;;;;;2.21;100.00;101276.41;4958662;29;20508;-84
2023/12/06 07:01:45;;;;;;;11.93;5.38;;;;;;;2.21;100.00;101280.63;4956619;29;20098;-83
2023/12/06 07:04:17;;;;;;;10.20;4.93;;;;;;;2.18;100.00;101266.06;4981866;23;20034;-83
2023/12/06 07:06:51;;;;;;;8.27;4.40;;;;;;;2.20;100.00;101269.53;4976967;28;20090;-83
2023/12/06 07:09:26;;;;;;;8.18;4.50;;;;;;;2.24;100.00;101279.03;4975954;28;20037;-83
2023/12/06 07:11:51;;;;;;;8.70;4.00;;;;;;;2.27;100.00;101286.78;5183455;23;20134;-82
2023/12/06 07:14:17;;;;;;;8.82;4.20;;;;;;;2.30;100.00;101296.28;4976194;28;20035;-82
2023/12/06 07:16:42;;;;;;;7.43;3.80;;;;;;;2.26;100.00;101282.50;4973740;28;20038;-82
2023/12/06 07:19:07;;;;;;;7.75;3.92;;;;;;;2.30;100.00;101296.28;4976691;28;20502;-85
2023/12/06 07:21:33;;;;;;;6.10;3.50;;;;;;;2.27;100.00;101278.25;4976824;28;20027;-85
2023/12/06 07:24:36;;;;;;;4.95;3.40;;;;;;;2.35;100.00;101293.81;4934598;28;20101;-83
2023/12/06 07:27:07;;;;;;;6.47;3.58;;;;;;;2.29;100.00;101287.69;4977143;28;20041;-81
2023/12/06 07:30:10;;;;;;;6.68;3.42;;;;;;;2.32;100.00;101297.16;4976964;28;20380;-83
2023/12/06 07:32:42;;;;;;;6.43;3.38;;;;;;;2.30;100.00;101288.59;4924492;28;20058;-83
2023/12/06 07:35:19;;;;;;;6.07;3.30;;;;;;;2.22;100.00;101269.56;4976736;28;20082;-83
2023/12/06 07:37:57;;;;;;;6.03;3.33;;;;;;;2.27;100.00;101288.50;4975097;28;20023;-82
2023/12/06 07:40:32;;;;;;;5.65;3.25;;;;;;;2.21;100.00;101294.31;4975692;28;20476;-83
2023/12/06 07:42:57;;;;;;;7.60;3.50;;;;;;;2.28;100.00;101318.41;4974856;28;20031;-82
2023/12/06 07:45:22;;;;;;;5.90;3.40;;;;;;;2.27;100.00;101325.22;4975164;28;20027;-82
2023/12/06 07:47:48;;;;;;;6.88;3.53;;;;;;;2.21;100.00;101319.06;4975176;28;20034;-82
2023/12/06 07:50:14;;;;;;;6.65;3.65;;;;;;;2.21;100.00;101329.28;4975967;28;20030;-82
2023/12/06 07:52:39;;;;;;;6.63;3.58;;;;;;;2.18;100.00;101322.41;5022636;23;20055;-82
2023/12/06 07:55:06;;;;;;;6.35;3.47;;;;;;;2.15;100.00;101319.75;4938058;29;20095;-82
2023/12/06 07:57:35;;;;;;;6.43;3.50;;;;;;;2.09;100.00;101312.78;4936748;29;20028;-82
2023/12/06 08:00:02;;;;;;;8.93;3.90;;;;;;;2.10;100.00;101319.63;4936437;29;20023;-82
2023/12/06 08:02:28;;;;;;;6.65;3.67;;;;;;;2.08;100.00;101330.66;4937347;29;20027;-83
2023/12/06 08:04:53;;;;;;;8.52;3.90;;;;;;;2.05;100.00;101333.13;4936368;29;20358;-82
2023/12/06 08:07:18;;;;;;;8.98;4.10;;;;;;;2.08;100.00;101331.56;4936963;29;20052;-82
2023/12/06 08:09:44;;;;;;;6.32;3.70;;;;;;;2.06;100.00;101333.19;4936494;29;20028;-82
2023/12/06 08:12:09;;;;;;;7.63;3.88;;;;;;;2.05;100.00;101338.25;4935843;29;20451;-82
2023/12/06 08:14:39;;;;;;;7.28;3.60;;;;;;;2.00;100.00;101340.69;4935718;29;20031;-82
2023/12/06 08:17:05;;;;;;;6.22;3.50;;;;;;;2.00;100.00;101335.56;4936630;29;20552;-82
2023/12/06 08:19:32;;;;;;;5.78;3.35;;;;;;;2.01;100.00;101345.00;4952447;23;20134;-83
2023/12/06 08:21:58;;;;;;;6.43;3.25;;;;;;;1.95;100.00;101343.13;4956224;29;20042;-82
2023/12/06 08:24:23;;;;;;;5.53;3.20;;;;;;;1.98;100.00;101352.56;4955371;29;20023;-82
2023/12/06 08:26:48;;;;;;;5.68;3.10;;;;;;;2.00;100.00;101351.81;4954646;29;20027;-82
2023/12/06 08:32:17;;;;;;;4.13;2.58;;;;;;;1.96;100.00;101344.88;4933611;29;20039;-83
2023/12/06 08:35:21;;;;;;;5.65;3.25;;;;;;;1.96;100.00;101331.22;4933439;29;20665;-82
2023/12/06 08:38:02;;;;;;;4.03;2.60;;;;;;;2.06;100.00;101347.66;4895716;29;20040;-82
2023/12/06 08:40:39;;;;;;;4.03;2.60;;;;;;;2.09;100.00;101350.31;4933302;29;20063;-81
2023/12/06 08:43:16;;;;;;;4.75;2.70;;;;;;;2.09;100.00;101348.63;4941391;29;20043;-82
2023/12/06 08:45:47;;;;;;;4.82;3.00;;;;;;;2.19;100.00;101357.44;4955402;29;20083;-82
2023/12/06 08:48:21;;;;;;;6.05;3.50;;;;;;;2.16;100.00;101352.22;4954257;29;20118;-81
2023/12/06 08:50:59;;;;;;;8.75;4.13;;;;;;;2.27;100.00;101371.31;4955502;29;20059;-82
2023/12/06 08:53:30;;;;;;;8.50;4.22;;;;;;;2.20;100.00;101359.19;4955447;28;20066;-82
2023/12/06 08:55:56;;;;;;;7.10;3.80;;;;;;;2.22;100.00;101366.88;4954409;29;20035;-83
2023/12/06 08:58:22;;;;;;;6.63;3.42;;;;;;;2.31;100.00;101385.94;4955417;29;20028;-82
2023/12/06 09:00:54;;;;;;;6.15;3.47;;;;;;;2.20;100.00;101361.75;4954948;29;20480;-83
2023/12/06 09:03:31;;;;;;;5.70;3.40;;;;;;;2.19;100.00;101365.13;4954097;29;20404;-82
2023/12/06 09:06:03;;;;;;;5.43;3.15;;;;;;;2.23;100.00;101392.56;4954943;29;20414;-82
2023/12/06 09:09:06;;;;;;;6.38;3.40;;;;;;;2.13;100.00;101375.22;4954626;29;20046;-81
2023/12/06 09:11:49;;;;;;;5.07;2.90;;;;;;;2.24;100.00;101389.19;4954538;29;20046;-82
2023/12/06 09:14:23;;;;;;;4.32;2.70;;;;;;;2.25;100.00;101375.53;4954515;29;20496;-82
2023/12/06 09:16:49;;;;;;;4.07;2.70;;;;;;;2.45;100.00;101391.44;4971184;23;20116;-82
2023/12/06 09:19:15;;;;;;;6.10;3.50;;;;;;;2.49;100.00;101397.50;4974357;28;20046;-80
2023/12/06 09:21:47;;;;;;;7.97;4.05;;;;;;;2.56;100.00;101398.53;5045630;23;20031;-81
2023/12/06 09:24:15;;;;;;;9.65;4.50;;;;;;;2.61;100.00;101405.53;4953147;29;20378;-82
2023/12/06 09:26:44;;;;;;;10.40;4.80;;;;;;;2.69;100.00;101404.88;4954848;29;20034;-85
2023/12/06 09:29:10;;;;;;;10.13;5.25;;;;;;;2.77;100.00;101409.34;4954777;29;20369;-81
2023/12/06 09:31:36;;;;;;;10.17;4.93;;;;;;;2.84;100.00;101412.94;4987736;23;20083;-85
2023/12/06 09:34:04;;;;;;;9.90;4.80;;;;;;;2.87;100.00;101413.03;4974085;28;20468;-85
2023/12/06 09:36:29;;;;;;;9.40;4.97;;;;;;;2.90;100.00;101408.00;4973089;28;20062;-85
2023/12/06 09:38:56;;;;;;;9.98;4.97;;;;;;;3.01;100.00;101409.97;4973784;28;20106;-84
2023/12/06 09:41:26;;;;;;;;;;;;;;;3.11;100.00;101417.06;4974528;28;20074;-85
2023/12/06 09:43:54;;;;;;;9.90;5.00;;;;;;;3.14;100.00;101419.69;4973343;28;19922;-85
2023/12/06 09:46:19;;;;;;;10.00;5.10;;;;;;;3.23;100.00;101413.91;4973986;28;20437;-84
2023/12/06 09:48:47;;;;;;;13.00;5.65;;;;;;;3.25;100.00;101414.81;4973783;28;20276;-85
2023/12/06 09:51:25;;;;;;;;;;;;;;;3.42;100.00;101429.75;4973463;28;20031;-85
2023/12/06 09:54:00;;;;;;;11.20;5.45;;;;;;;3.35;100.00;101421.91;4973563;28;20380;-85
2023/12/06 09:56:41;;;;;;;12.07;5.72;;;;;;;3.34;100.00;101421.88;4987282;23;20058;-84
2023/12/06 09:59:24;;;;;;;10.52;5.10;;;;;;;3.34;100.00;101419.31;4973204;28;20403;-85
2023/12/06 10:01:50;;;;;;;10.07;4.78;;;;;;;3.46;100.00;101437.56;4973083;28;20049;-85
2023/12/06 10:04:34;;;;;;;11.88;5.32;;;;;;;3.46;100.00;101437.56;4974278;28;20034;-85
2023/12/06 10:07:00;;;;;;;9.98;5.13;;;;;;;3.51;100.00;101437.66;4977724;28;20472;-82
2023/12/06 10:09:38;;;;;;;9.60;4.60;;;;;;;3.40;100.00;101424.56;4977897;28;20034;-86
2023/12/06 10:12:26;;;;;;;8.50;4.65;;;;;;;3.57;100.00;101449.78;4976662;28;20113;-86
2023/12/06 10:15:16;;;;;;;8.55;4.47;;;;;;;3.60;100.00;101437.88;4958463;29;20628;-86
2023/12/06 10:17:57;;;;;;;7.50;4.10;;;;;;;3.53;100.00;101420.59;4958114;29;20447;-85
2023/12/06 10:20:32;;;;;;;7.90;4.40;;;;;;;3.62;100.00;101420.81;4957237;29;20119;-84
2023/12/06 10:23:03;;;;;;;8.50;4.30;;;;;;;3.77;100.00;101439.97;4957881;29;20442;-84
2023/12/06 10:25:41;;;;;;;8.38;4.50;;;;;;;3.75;100.00;101426.22;4957416;29;20030;-84
2023/12/06 10:28:07;;;;;;;9.05;4.50;;;;;;;3.88;100.00;101445.31;4957874;29;20027;-84
2023/12/06 10:30:32;;;;;;;10.73;4.80;;;;;;;3.77;100.00;101430.56;4968217;28;20101;-84
2023/12/06 10:32:58;;;;;;;10.73;4.80;;;;;;;3.92;100.00;101435.16;4976176;28;20031;-84
2023/12/06 10:35:35;;;;;;;8.00;4.43;;;;;;;4.01;100.00;101439.63;4977104;28;20014;-85
2023/12/06 10:38:02;;;;;;;9.50;4.47;;;;;;;4.08;100.00;101430.34;4976878;28;20027;-86
2023/12/06 10:40:36;;;;;;;;;;;;;;;4.14;100.00;101441.63;4977196;28;20031;-83
2023/12/06 10:43:22;;;;;;;13.88;5.85;;;;;;;4.16;100.00;101449.34;4977172;28;19918;-84
2023/12/06 10:45:59;;;;;;;12.90;5.88;;;;;;;4.06;100.00;101422.59;4977158;28;20023;-84
2023/12/06 10:48:29;;;;;;;13.38;6.10;;;;;;;4.15;100.00;101434.78;4976257;28;20046;-84
2023/12/06 10:51:35;;;;;;;11.63;5.60;;;;;;;4.21;100.00;101445.19;4976849;28;20035;-83
2023/12/06 10:54:01;;;;;;;10.48;4.90;;;;;;;4.22;100.00;101438.34;4976539;28;20034;-83
2023/12/06 10:57:28;;;;;;;8.20;4.72;;;;;;;4.25;100.00;101435.84;4975727;28;20399;-81
2023/12/06 10:59:58;;;;;;;12.13;5.72;;;;;;;4.23;100.00;101433.22;4976237;28;20039;-82
2023/12/06 11:02:28;;;;;;;12.93;5.90;;;;;;;4.22;100.00;101428.06;4975118;28;20074;-81
2023/12/06 11:05:05;;;;;;;11.75;5.82;;;;;;;4.29;100.00;101424.78;4976124;28;20029;-81
2023/12/06 11:08:01;;;;;;;;;;;;;;;4.35;100.00;101445.47;4974929;28;20039;-81
2023/12/06 11:11:06;;;;;;;12.50;5.90;;;;;;;4.22;100.00;101417.78;4976953;28;19952;-81
2023/12/06 11:13:58;;;;;;;11.15;5.43;;;;;;;4.42;100.00;101439.59;4976228;28;20027;-81
2023/12/06 11:17:04;;;;;;;11.85;5.63;;;;;;;4.44;100.00;101448.22;4974247;28;20031;-81
2023/12/06 11:19:30;;;;;;;13.38;6.25;;;;;;;4.43;100.00;101441.34;4976645;28;20031;-81
2023/12/06 11:21:55;;;;;;;12.70;6.10;;;;;;;4.47;100.00;101440.56;4975266;28;20038;-81
2023/12/06 11:24:21;;;;;;;12.13;5.50;;;;;;;4.58;100.00;101445.06;4976154;28;20049;-81
2023/12/06 11:26:46;;;;;;;11.47;5.80;;;;;;;4.59;100.00;101434.78;4976267;28;20538;-81
2023/12/06 11:29:14;;;;;;;10.65;5.78;;;;;;;4.64;100.00;101442.59;4975878;28;20026;-82
2023/12/06 11:31:40;;;;;;;10.68;5.40;;;;;;;4.59;100.00;101434.78;4975829;28;20022;-82
2023/12/06 11:34:09;;;;;;;10.90;6.00;;;;;;;4.60;100.00;101440.81;4976398;28;20033;-81
2023/12/06 11:36:41;;;;;;;15.13;6.38;;;;;;;4.62;100.00;101432.28;4974623;28;20035;-81